createdAt,value
2023-03-18T00:04:13.714Z,2.50
2023-03-18T00:09:15.925Z,2.03
2023-03-18T00:14:19.696Z,2.60
2023-03-18T00:19:22.095Z,2.87
2023-03-18T00:24:25.299Z,2.90
2023-03-18T00:29:27.496Z,2.67
2023-03-18T00:34:29.693Z,3.17
2023-03-18T00:39:33.286Z,2.70
2023-03-18T00:44:35.556Z,2.17
2023-03-18T00:49:38.149Z,2.33
2023-03-18T00:54:40.408Z,2.33
2023-03-18T01:00:01.524Z,1.67
2023-03-18T01:05:05.852Z,2.23
2023-03-18T01:10:09.467Z,1.90
2023-03-18T01:15:14.624Z,1.97
2023-03-18T01:20:19.746Z,1.97
2023-03-18T01:25:26.131Z,1.58
2023-03-18T01:30:31.097Z,1.63
2023-03-18T01:35:35.998Z,1.60
2023-03-18T01:40:41.037Z,1.53
2023-03-18T01:45:54.590Z,1.50
2023-03-18T01:51:01.032Z,1.50
2023-03-18T01:56:04.164Z,1.40
2023-03-18T02:01:33.820Z,1.50
2023-03-18T02:06:39.861Z,1.77
2023-03-18T02:11:45.085Z,1.50
2023-03-18T02:16:54.206Z,1.50
2023-03-18T02:22:14.039Z,2.03
2023-03-18T02:27:21.989Z,1.93
2023-03-18T02:32:29.550Z,2.20
2023-03-18T02:37:31.777Z,2.37
2023-03-18T02:42:34.914Z,1.70
2023-03-18T02:47:38.814Z,2.27
2023-03-18T02:52:41.085Z,1.70
2023-03-18T02:57:43.392Z,2.37
2023-03-18T03:02:45.771Z,2.20
2023-03-18T03:07:48.348Z,2.23
2023-03-18T03:12:51.714Z,2.00
2023-03-18T03:17:55.537Z,1.80
2023-03-18T03:22:58.209Z,2.63
2023-03-18T03:28:00.591Z,2.27
2023-03-18T03:33:02.985Z,1.80
2023-03-18T03:38:05.912Z,2.03
2023-03-18T03:43:08.168Z,2.00
2023-03-18T03:48:10.468Z,2.07
2023-03-18T03:53:12.734Z,2.30
2023-03-18T03:58:15.375Z,2.63
2023-03-18T04:03:18.977Z,2.37
2023-03-18T04:08:21.974Z,2.30
2023-03-18T04:13:24.983Z,2.10
2023-03-18T04:18:28.700Z,3.13
2023-03-18T04:23:33.339Z,2.53
2023-03-18T04:28:35.630Z,2.93
2023-03-18T04:33:40.090Z,2.47
2023-03-18T04:38:42.543Z,3.60
2023-03-18T04:43:45.814Z,2.20
2023-03-18T04:48:48.216Z,2.57
2023-03-18T04:53:50.976Z,2.57
2023-03-18T04:58:53.515Z,2.80
2023-03-18T05:04:02.193Z,3.33
2023-03-18T05:09:13.584Z,4.93
2023-03-18T05:14:17.610Z,4.93
2023-03-18T05:19:22.760Z,2.30
2023-03-18T05:24:33.516Z,6.40
2023-03-18T05:29:38.754Z,3.10
2023-03-18T05:34:47.734Z,2.27
2023-03-18T05:39:50.805Z,1.60
2023-03-18T05:44:56.845Z,1.50
2023-03-18T05:50:01.893Z,1.53
2023-03-18T05:55:06.415Z,2.10
2023-03-18T06:00:13.792Z,1.10
2023-03-18T06:05:21.406Z,1.17
2023-03-18T06:10:25.412Z,1.40
2023-03-18T06:15:28.238Z,0.67
2023-03-18T06:20:32.517Z,1.20
2023-03-18T06:25:35.255Z,2.77
2023-03-18T06:30:37.833Z,1.20
2023-03-18T06:35:40.894Z,1.13
2023-03-18T06:40:46.748Z,1.30
2023-03-18T06:45:49.265Z,1.30
2023-03-18T06:50:51.684Z,1.20
2023-03-18T06:56:02.578Z,1.50
2023-03-18T07:01:12.895Z,1.10
2023-03-18T07:06:19.512Z,1.47
2023-03-18T07:11:23.438Z,2.33
2023-03-18T07:16:30.947Z,2.13
2023-03-18T07:21:34.222Z,1.40
2023-03-18T07:26:38.684Z,1.87
2023-03-18T07:31:44.702Z,1.20
2023-03-18T07:36:47.186Z,1.10
2023-03-18T07:41:51.908Z,2.00
2023-03-18T07:47:00.361Z,2.43
2023-03-18T07:52:02.866Z,2.00
2023-03-18T07:57:05.650Z,1.73
2023-03-18T08:02:09.191Z,1.30
2023-03-18T08:07:11.864Z,1.63
2023-03-18T08:12:15.306Z,1.60
2023-03-18T08:17:19.226Z,1.57
2023-03-18T08:22:21.789Z,1.40
2023-03-18T08:27:25.473Z,1.33
2023-03-18T08:32:28.286Z,1.60
2023-03-18T08:37:30.738Z,1.60
2023-03-18T08:42:33.090Z,1.37
2023-03-18T08:47:35.463Z,1.50
2023-03-18T08:52:41.508Z,1.30
2023-03-18T08:57:43.785Z,1.30
2023-03-18T09:02:46.473Z,1.30
2023-03-18T09:07:48.694Z,1.30
2023-03-18T09:12:51.095Z,0.90
2023-03-18T09:18:09.971Z,1.20
2023-03-18T09:23:14.297Z,1.10
2023-03-18T09:28:16.928Z,1.30
2023-03-18T09:33:19.854Z,1.30
2023-03-18T09:38:22.778Z,1.10
2023-03-18T09:43:29.698Z,1.20
2023-03-18T09:48:44.468Z,1.37
2023-03-18T09:53:54.802Z,1.30
2023-03-18T09:59:07.641Z,2.50
2023-03-18T10:04:20.983Z,1.10
2023-03-18T10:09:34.675Z,1.30
2023-03-18T10:14:49.564Z,1.20
2023-03-18T10:20:04.161Z,1.10
2023-03-18T10:25:29.610Z,0.90
2023-03-18T10:30:53.455Z,1.00
2023-03-18T10:36:02.309Z,1.03
2023-03-18T10:41:17.815Z,1.53
2023-03-18T10:46:22.228Z,1.17
2023-03-18T10:51:40.413Z,1.40
2023-03-18T10:56:43.239Z,1.20
2023-03-18T11:01:47.786Z,1.30
2023-03-18T11:06:57.958Z,1.27
2023-03-18T11:12:26.012Z,0.90
2023-03-18T11:17:37.138Z,1.20
2023-03-18T11:22:45.333Z,1.20
2023-03-18T11:27:53.355Z,1.27
2023-03-18T11:33:04.441Z,1.30
2023-03-18T11:38:07.785Z,1.50
2023-03-18T11:43:20.575Z,1.10
2023-03-18T11:48:37.291Z,2.10
2023-03-18T11:53:47.220Z,1.10
2023-03-18T11:59:27.343Z,1.10
2023-03-18T12:04:45.903Z,1.47
2023-03-18T12:10:00.764Z,1.67
2023-03-18T12:15:22.075Z,1.50
2023-03-18T12:20:33.691Z,1.67
2023-03-18T12:26:10.691Z,1.50
2023-03-18T12:31:30.929Z,1.50
2023-03-18T12:36:50.457Z,2.13
2023-03-18T12:41:58.863Z,1.57
2023-03-18T12:47:16.929Z,1.93
2023-03-18T12:52:44.435Z,1.40
2023-03-18T12:57:50.779Z,1.47
2023-03-18T13:03:00.557Z,1.53
2023-03-18T13:08:36.953Z,1.70
2023-03-18T13:13:44.237Z,1.20
2023-03-18T13:18:51.925Z,1.53
2023-03-18T13:24:14.106Z,1.40
2023-03-18T13:29:45.154Z,1.30
2023-03-18T13:35:26.233Z,1.23
2023-03-18T13:40:39.967Z,10.03
2023-03-18T13:45:46.880Z,3.00
2023-03-18T13:50:51.709Z,9.30
2023-03-18T13:56:03.855Z,4.37
2023-03-18T14:01:28.888Z,3.60
2023-03-18T14:06:37.440Z,18.80
2023-03-18T14:11:50.604Z,8.93
2023-03-18T14:16:53.554Z,3.30
2023-03-18T14:22:07.796Z,1.30
2023-03-18T14:27:17.746Z,2.10
2023-03-18T14:32:23.411Z,1.30
2023-03-18T14:37:29.711Z,3.00
2023-03-18T14:42:37.427Z,2.43
2023-03-18T14:47:52.606Z,5.07
2023-03-18T14:53:21.027Z,3.33
2023-03-18T14:58:24.484Z,3.60
2023-03-18T15:03:31.527Z,2.90
2023-03-18T15:08:48.265Z,1.73
2023-03-18T15:13:54.893Z,1.80
2023-03-18T15:18:57.181Z,1.93
2023-03-18T15:24:04.957Z,2.33
2023-03-18T15:29:26.023Z,1.60
2023-03-18T15:34:31.089Z,1.90
2023-03-18T15:39:37.879Z,2.87
2023-03-18T15:44:40.900Z,1.33
2023-03-18T15:49:50.773Z,1.30
2023-03-18T15:54:53.756Z,1.57
2023-03-18T15:59:56.219Z,1.60
2023-03-18T16:05:20.947Z,1.07
2023-03-18T16:10:26.296Z,1.47
2023-03-18T16:15:30.024Z,1.37
2023-03-18T16:20:33.732Z,2.00
2023-03-18T16:25:37.090Z,2.90
2023-03-18T16:30:41.070Z,1.77
2023-03-18T16:35:44.161Z,1.70
2023-03-18T16:40:47.031Z,1.63
2023-03-18T16:45:51.049Z,1.40
2023-03-18T16:50:53.692Z,1.30
2023-03-18T16:55:59.998Z,1.50
2023-03-18T17:01:06.546Z,1.63
2023-03-18T17:06:10.141Z,1.80
2023-03-18T17:11:18.528Z,1.50
2023-03-18T17:16:21.401Z,2.20
2023-03-18T17:21:24.133Z,2.73
2023-03-18T17:26:28.907Z,5.23
2023-03-18T17:31:31.400Z,3.73
2023-03-18T17:36:33.896Z,5.60
2023-03-18T17:41:36.409Z,5.47
2023-03-18T17:46:38.971Z,5.77
2023-03-18T17:51:41.911Z,5.47
2023-03-18T17:56:44.860Z,5.37
2023-03-18T18:01:49.031Z,6.77
2023-03-18T18:06:51.810Z,7.33
2023-03-18T18:11:54.618Z,7.13
2023-03-18T18:16:57.288Z,6.43
2023-03-18T18:22:03.923Z,6.93
2023-03-18T18:27:06.583Z,7.03
2023-03-18T18:32:09.341Z,7.67
2023-03-18T18:37:12.292Z,8.03
2023-03-18T18:42:14.933Z,9.20
2023-03-18T18:47:20.821Z,8.90
2023-03-18T18:52:29.278Z,10.73
2023-03-18T18:57:32.487Z,12.87
2023-03-18T19:02:43.549Z,10.25
2023-03-18T19:07:46.826Z,9.73
2023-03-18T19:12:52.830Z,6.97
2023-03-18T19:17:55.507Z,6.23
2023-03-18T19:22:58.006Z,5.87
2023-03-18T19:28:01.005Z,6.33
2023-03-18T19:33:06.391Z,5.60
2023-03-18T19:38:16.490Z,4.40
2023-03-18T19:43:21.784Z,6.80
2023-03-18T19:48:25.202Z,4.60
2023-03-18T19:53:31.308Z,4.57
2023-03-18T19:58:33.758Z,4.63
2023-03-18T20:03:36.237Z,4.47
2023-03-18T20:08:41.270Z,5.60
2023-03-18T20:13:43.889Z,5.83
2023-03-18T20:18:46.555Z,5.07
2023-03-18T20:23:49.814Z,4.47
2023-03-18T20:28:55.829Z,5.17
2023-03-18T20:33:58.162Z,4.90
2023-03-18T20:39:04.330Z,4.13
2023-03-18T20:44:06.711Z,4.33
2023-03-18T20:49:09.807Z,4.20
2023-03-18T20:54:18.472Z,4.30
2023-03-18T20:59:21.102Z,3.97
2023-03-18T21:04:23.522Z,5.67
2023-03-18T21:09:25.948Z,4.63
2023-03-18T21:14:28.326Z,5.03
2023-03-18T21:19:30.714Z,4.73
2023-03-18T21:24:33.065Z,4.37
2023-03-18T21:29:35.422Z,4.20
2023-03-18T21:34:37.872Z,4.07
2023-03-18T21:39:41.760Z,4.57
2023-03-18T21:44:53.644Z,3.60
2023-03-18T21:49:55.932Z,3.63
2023-03-18T21:54:58.990Z,2.87
2023-03-18T22:00:01.543Z,3.27
2023-03-18T22:05:10.700Z,2.63
2023-03-18T22:10:21.670Z,3.23
2023-03-18T22:15:23.910Z,3.10
2023-03-18T22:20:26.794Z,3.73
2023-03-18T22:25:30.701Z,3.40
2023-03-18T22:30:33.918Z,3.43
2023-03-18T22:35:36.682Z,2.47
2023-03-18T22:40:40.053Z,3.37
2023-03-18T22:45:42.298Z,2.30
2023-03-18T22:50:44.685Z,2.30
2023-03-18T22:55:47.370Z,2.17
2023-03-18T23:00:50.302Z,2.33
2023-03-18T23:05:54.128Z,2.43
2023-03-18T23:10:57.710Z,2.77
2023-03-18T23:16:01.287Z,2.70
2023-03-18T23:21:04.166Z,2.30
2023-03-18T23:26:06.580Z,2.33
2023-03-18T23:31:09.596Z,2.23
2023-03-18T23:36:12.470Z,2.50
2023-03-18T23:41:15.002Z,2.87
2023-03-18T23:46:17.306Z,2.03
2023-03-18T23:51:19.671Z,1.83
2023-03-18T23:56:21.851Z,2.30
